sensor_id;sensor_type;location;lat;lon;timestamp;P1;durP1;ratioP1;P2;durP2;ratioP2
52962;SDS011;38827;53.024;6.596;2023-12-20T00:01:59;14.85;;;2.20;;
52962;SDS011;38827;53.024;6.596;2023-12-20T00:04:36;22.73;;;3.80;;
52962;SDS011;38827;53.024;6.596;2023-12-20T00:07:02;20.02;;;2.42;;
52962;SDS011;38827;53.024;6.596;2023-12-20T00:09:31;13.98;;;2.08;;
52962;SDS011;38827;53.024;6.596;2023-12-20T00:11:56;17.90;;;2.50;;
52962;SDS011;38827;53.024;6.596;2023-12-20T00:14:25;9.65;;;2.00;;
52962;SDS011;38827;53.024;6.596;2023-12-20T00:16:54;14.18;;;2.95;;
52962;SDS011;38827;53.024;6.596;2023-12-20T00:19:35;18.15;;;3.15;;
52962;SDS011;38827;53.024;6.596;2023-12-20T00:22:01;16.48;;;2.55;;
52962;SDS011;38827;53.024;6.596;2023-12-20T00:24:38;18.00;;;2.97;;
52962;SDS011;38827;53.024;6.596;2023-12-20T00:27:34;18.20;;;2.58;;
52962;SDS011;38827;53.024;6.596;2023-12-20T00:30:09;13.40;;;2.15;;
52962;SDS011;38827;53.024;6.596;2023-12-20T00:32:51;20.55;;;2.95;;
52962;SDS011;38827;53.024;6.596;2023-12-20T00:35:35;23.67;;;2.40;;
52962;SDS011;38827;53.024;6.596;2023-12-20T00:38:01;12.85;;;2.22;;
52962;SDS011;38827;53.024;6.596;2023-12-20T00:40:27;14.75;;;2.45;;
52962;SDS011;38827;53.024;6.596;2023-12-20T00:42:52;22.25;;;2.83;;
52962;SDS011;38827;53.024;6.596;2023-12-20T00:45:30;14.43;;;2.97;;
52962;SDS011;38827;53.024;6.596;2023-12-20T00:50:55;17.38;;;3.20;;
52962;SDS011;38827;53.024;6.596;2023-12-20T00:53:24;20.08;;;2.40;;
52962;SDS011;38827;53.024;6.596;2023-12-20T01:47:16;22.40;;;2.95;;
52962;SDS011;38827;53.024;6.596;2023-12-20T01:49:31;22.35;;;3.17;;
52962;SDS011;38827;53.024;6.596;2023-12-20T01:51:57;21.50;;;3.17;;
52962;SDS011;38827;53.024;6.596;2023-12-20T01:54:26;11.35;;;2.42;;
52962;SDS011;38827;53.024;6.596;2023-12-20T02:00:35;17.83;;;2.70;;
52962;SDS011;38827;53.024;6.596;2023-12-20T02:03:10;17.33;;;3.42;;
52962;SDS011;38827;53.024;6.596;2023-12-20T02:05:36;18.17;;;2.90;;
52962;SDS011;38827;53.024;6.596;2023-12-20T02:08:27;24.88;;;3.90;;
52962;SDS011;38827;53.024;6.596;2023-12-20T02:11:05;15.05;;;2.65;;
52962;SDS011;38827;53.024;6.596;2023-12-20T02:13:36;18.25;;;2.83;;
52962;SDS011;38827;53.024;6.596;2023-12-20T02:16:02;23.83;;;3.30;;
52962;SDS011;38827;53.024;6.596;2023-12-20T02:18:28;19.80;;;3.20;;
52962;SDS011;38827;53.024;6.596;2023-12-20T02:20:59;30.55;;;4.00;;
52962;SDS011;38827;53.024;6.596;2023-12-20T02:23:37;20.05;;;3.78;;
52962;SDS011;38827;53.024;6.596;2023-12-20T02:26:15;26.52;;;3.22;;
52962;SDS011;38827;53.024;6.596;2023-12-20T02:31:58;21.35;;;3.47;;
52962;SDS011;38827;53.024;6.596;2023-12-20T02:34:35;19.25;;;3.67;;
52962;SDS011;38827;53.024;6.596;2023-12-20T02:37:04;21.40;;;3.75;;
52962;SDS011;38827;53.024;6.596;2023-12-20T02:39:30;23.02;;;3.88;;
52962;SDS011;38827;53.024;6.596;2023-12-20T02:42:30;19.17;;;2.90;;
52962;SDS011;38827;53.024;6.596;2023-12-20T02:44:59;25.23;;;4.07;;
52962;SDS011;38827;53.024;6.596;2023-12-20T02:52:54;24.15;;;4.18;;
52962;SDS011;38827;53.024;6.596;2023-12-20T02:55:19;26.33;;;4.43;;
52962;SDS011;38827;53.024;6.596;2023-12-20T02:58:16;23.58;;;4.28;;
52962;SDS011;38827;53.024;6.596;2023-12-20T03:00:55;26.45;;;3.60;;
52962;SDS011;38827;53.024;6.596;2023-12-20T03:03:20;25.63;;;4.05;;
52962;SDS011;38827;53.024;6.596;2023-12-20T03:08:58;24.95;;;3.30;;
52962;SDS011;38827;53.024;6.596;2023-12-20T03:11:27;23.50;;;3.65;;
52962;SDS011;38827;53.024;6.596;2023-12-20T03:25:43;33.28;;;4.60;;
52962;SDS011;38827;53.024;6.596;2023-12-20T03:28:19;32.03;;;5.30;;
52962;SDS011;38827;53.024;6.596;2023-12-20T03:31:03;23.70;;;4.47;;
52962;SDS011;38827;53.024;6.596;2023-12-20T03:37:02;27.08;;;3.83;;
52962;SDS011;38827;53.024;6.596;2023-12-20T03:39:33;28.17;;;3.83;;
52962;SDS011;38827;53.024;6.596;2023-12-20T03:42:02;34.83;;;4.57;;
52962;SDS011;38827;53.024;6.596;2023-12-20T03:44:43;30.35;;;5.10;;
52962;SDS011;38827;53.024;6.596;2023-12-20T03:47:09;31.38;;;4.18;;
52962;SDS011;38827;53.024;6.596;2023-12-20T03:49:59;31.38;;;4.78;;
52962;SDS011;38827;53.024;6.596;2023-12-20T03:56:24;21.67;;;4.53;;
52962;SDS011;38827;53.024;6.596;2023-12-20T04:26:53;29.30;;;5.38;;
52962;SDS011;38827;53.024;6.596;2023-12-20T04:32:34;28.10;;;4.30;;
52962;SDS011;38827;53.024;6.596;2023-12-20T04:35:00;24.92;;;4.10;;
52962;SDS011;38827;53.024;6.596;2023-12-20T04:41:15;30.05;;;4.90;;
52962;SDS011;38827;53.024;6.596;2023-12-20T04:44:09;29.90;;;4.60;;
52962;SDS011;38827;53.024;6.596;2023-12-20T04:46:38;28.10;;;4.40;;
52962;SDS011;38827;53.024;6.596;2023-12-20T04:49:19;38.25;;;5.72;;
52962;SDS011;38827;53.024;6.596;2023-12-20T04:55:49;28.63;;;4.35;;
52962;SDS011;38827;53.024;6.596;2023-12-20T04:58:20;22.85;;;4.22;;
52962;SDS011;38827;53.024;6.596;2023-12-20T05:09:12;25.33;;;4.85;;
52962;SDS011;38827;53.024;6.596;2023-12-20T05:15:53;27.13;;;4.38;;
52962;SDS011;38827;53.024;6.596;2023-12-20T05:18:44;24.83;;;4.28;;
52962;SDS011;38827;53.024;6.596;2023-12-20T05:30:03;28.45;;;4.88;;
52962;SDS011;38827;53.024;6.596;2023-12-20T05:40:58;29.05;;;3.78;;
52962;SDS011;38827;53.024;6.596;2023-12-20T05:46:41;22.27;;;3.88;;
52962;SDS011;38827;53.024;6.596;2023-12-20T07:19:46;29.85;;;3.90;;
52962;SDS011;38827;53.024;6.596;2023-12-20T07:25:06;26.45;;;4.38;;
52962;SDS011;38827;53.024;6.596;2023-12-20T07:42:20;26.02;;;4.63;;
52962;SDS011;38827;53.024;6.596;2023-12-20T07:44:59;23.30;;;4.05;;
52962;SDS011;38827;53.024;6.596;2023-12-20T07:55:29;27.58;;;5.05;;
52962;SDS011;38827;53.024;6.596;2023-12-20T08:05:04;20.38;;;3.83;;
52962;SDS011;38827;53.024;6.596;2023-12-20T08:19:14;25.45;;;4.28;;
52962;SDS011;38827;53.024;6.596;2023-12-20T08:43:46;10.52;;;2.00;;
52962;SDS011;38827;53.024;6.596;2023-12-20T08:46:13;19.02;;;2.83;;
52962;SDS011;38827;53.024;6.596;2023-12-20T08:54:34;15.32;;;3.30;;
52962;SDS011;38827;53.024;6.596;2023-12-20T09:10:53;21.45;;;3.53;;
52962;SDS011;38827;53.024;6.596;2023-12-20T09:13:34;27.10;;;4.43;;
52962;SDS011;38827;53.024;6.596;2023-12-20T11:53:05;13.38;;;1.98;;
52962;SDS011;38827;53.024;6.596;2023-12-20T12:45:18;18.80;;;2.38;;
52962;SDS011;38827;53.024;6.596;2023-12-20T12:50:51;16.45;;;2.25;;
52962;SDS011;38827;53.024;6.596;2023-12-20T12:56:53;17.67;;;2.20;;
52962;SDS011;38827;53.024;6.596;2023-12-20T13:08:39;15.45;;;2.40;;
52962;SDS011;38827;53.024;6.596;2023-12-20T13:18:16;13.77;;;1.83;;
52962;SDS011;38827;53.024;6.596;2023-12-20T13:20:51;16.27;;;2.22;;
52962;SDS011;38827;53.024;6.596;2023-12-20T13:35:58;9.60;;;1.60;;
52962;SDS011;38827;53.024;6.596;2023-12-20T13:38:30;11.85;;;2.15;;
52962;SDS011;38827;53.024;6.596;2023-12-20T13:41:02;11.50;;;2.17;;
52962;SDS011;38827;53.024;6.596;2023-12-20T13:43:31;10.00;;;1.60;;
52962;SDS011;38827;53.024;6.596;2023-12-20T13:46:31;11.13;;;1.80;;
52962;SDS011;38827;53.024;6.596;2023-12-20T13:48:57;13.55;;;2.05;;
52962;SDS011;38827;53.024;6.596;2023-12-20T13:54:47;9.52;;;1.40;;
52962;SDS011;38827;53.024;6.596;2023-12-20T14:00:08;9.10;;;1.38;;
52962;SDS011;38827;53.024;6.596;2023-12-20T14:02:42;12.98;;;1.80;;
52962;SDS011;38827;53.024;6.596;2023-12-20T14:05:08;7.70;;;1.55;;
52962;SDS011;38827;53.024;6.596;2023-12-20T14:07:35;9.20;;;1.83;;
52962;SDS011;38827;53.024;6.596;2023-12-20T14:10:11;10.65;;;1.75;;
52962;SDS011;38827;53.024;6.596;2023-12-20T14:12:38;11.80;;;2.03;;
52962;SDS011;38827;53.024;6.596;2023-12-20T14:15:04;8.90;;;1.70;;
52962;SDS011;38827;53.024;6.596;2023-12-20T14:17:36;11.95;;;1.77;;
52962;SDS011;38827;53.024;6.596;2023-12-20T14:20:04;8.00;;;1.67;;
52962;SDS011;38827;53.024;6.596;2023-12-20T14:23:25;8.48;;;1.83;;
52962;SDS011;38827;53.024;6.596;2023-12-20T14:25:51;9.27;;;1.85;;
52962;SDS011;38827;53.024;6.596;2023-12-20T14:28:17;7.72;;;2.25;;
52962;SDS011;38827;53.024;6.596;2023-12-20T14:30:43;9.13;;;1.80;;
52962;SDS011;38827;53.024;6.596;2023-12-20T14:33:09;8.70;;;1.73;;
52962;SDS011;38827;53.024;6.596;2023-12-20T14:35:35;12.23;;;1.75;;
52962;SDS011;38827;53.024;6.596;2023-12-20T14:38:00;19.15;;;1.70;;
52962;SDS011;38827;53.024;6.596;2023-12-20T14:40:26;9.88;;;1.63;;
52962;SDS011;38827;53.024;6.596;2023-12-20T14:42:52;9.93;;;1.70;;
52962;SDS011;38827;53.024;6.596;2023-12-20T14:45:18;7.20;;;2.28;;
52962;SDS011;38827;53.024;6.596;2023-12-20T14:47:53;13.60;;;2.22;;
52962;SDS011;38827;53.024;6.596;2023-12-20T14:50:19;9.73;;;1.73;;
52962;SDS011;38827;53.024;6.596;2023-12-20T14:52:44;11.10;;;2.13;;
52962;SDS011;38827;53.024;6.596;2023-12-20T14:55:10;8.43;;;1.42;;
52962;SDS011;38827;53.024;6.596;2023-12-20T14:57:36;10.45;;;1.77;;
52962;SDS011;38827;53.024;6.596;2023-12-20T15:00:02;11.55;;;2.35;;
52962;SDS011;38827;53.024;6.596;2023-12-20T15:02:36;9.60;;;1.88;;
52962;SDS011;38827;53.024;6.596;2023-12-20T15:05:02;8.63;;;2.40;;
52962;SDS011;38827;53.024;6.596;2023-12-20T15:07:27;13.55;;;2.83;;
52962;SDS011;38827;53.024;6.596;2023-12-20T15:09:53;9.13;;;1.77;;
52962;SDS011;38827;53.024;6.596;2023-12-20T15:12:19;8.35;;;1.90;;
52962;SDS011;38827;53.024;6.596;2023-12-20T15:14:44;6.78;;;1.60;;
52962;SDS011;38827;53.024;6.596;2023-12-20T15:17:10;8.38;;;2.08;;
52962;SDS011;38827;53.024;6.596;2023-12-20T15:19:36;10.95;;;1.60;;
52962;SDS011;38827;53.024;6.596;2023-12-20T15:22:02;7.72;;;1.77;;
52962;SDS011;38827;53.024;6.596;2023-12-20T15:27:03;11.77;;;1.80;;
52962;SDS011;38827;53.024;6.596;2023-12-20T15:29:30;10.40;;;2.78;;
52962;SDS011;38827;53.024;6.596;2023-12-20T15:31:56;12.67;;;2.73;;
52962;SDS011;38827;53.024;6.596;2023-12-20T15:34:22;12.15;;;2.22;;
52962;SDS011;38827;53.024;6.596;2023-12-20T15:36:47;9.43;;;2.22;;
52962;SDS011;38827;53.024;6.596;2023-12-20T15:39:13;12.90;;;2.30;;
52962;SDS011;38827;53.024;6.596;2023-12-20T16:08:45;17.13;;;4.10;;
52962;SDS011;38827;53.024;6.596;2023-12-20T16:11:11;12.82;;;3.30;;
52962;SDS011;38827;53.024;6.596;2023-12-20T16:13:42;16.55;;;2.90;;
52962;SDS011;38827;53.024;6.596;2023-12-20T16:21:19;10.43;;;2.33;;
52962;SDS011;38827;53.024;6.596;2023-12-20T16:23:44;19.90;;;3.03;;
52962;SDS011;38827;53.024;6.596;2023-12-20T16:26:11;16.33;;;2.50;;
52962;SDS011;38827;53.024;6.596;2023-12-20T16:33:42;12.63;;;2.50;;
52962;SDS011;38827;53.024;6.596;2023-12-20T16:43:20;16.00;;;4.17;;
52962;SDS011;38827;53.024;6.596;2023-12-20T16:46:15;15.95;;;3.17;;
52962;SDS011;38827;53.024;6.596;2023-12-20T16:48:41;13.10;;;3.33;;
52962;SDS011;38827;53.024;6.596;2023-12-20T16:54:16;21.33;;;3.28;;
52962;SDS011;38827;53.024;6.596;2023-12-20T16:56:42;24.60;;;4.40;;
52962;SDS011;38827;53.024;6.596;2023-12-20T16:59:08;15.90;;;3.58;;
52962;SDS011;38827;53.024;6.596;2023-12-20T17:01:34;21.77;;;4.75;;
52962;SDS011;38827;53.024;6.596;2023-12-20T17:04:00;19.02;;;4.65;;
52962;SDS011;38827;53.024;6.596;2023-12-20T17:06:26;26.50;;;4.28;;
52962;SDS011;38827;53.024;6.596;2023-12-20T17:11:19;20.67;;;4.23;;
52962;SDS011;38827;53.024;6.596;2023-12-20T17:14:01;22.42;;;5.43;;
52962;SDS011;38827;53.024;6.596;2023-12-20T17:16:30;19.92;;;4.63;;
52962;SDS011;38827;53.024;6.596;2023-12-20T17:19:01;20.92;;;4.20;;
52962;SDS011;38827;53.024;6.596;2023-12-20T17:21:29;23.92;;;4.20;;
52962;SDS011;38827;53.024;6.596;2023-12-20T17:23:55;21.50;;;4.28;;
52962;SDS011;38827;53.024;6.596;2023-12-20T17:26:27;23.73;;;4.15;;
52962;SDS011;38827;53.024;6.596;2023-12-20T17:29:02;22.95;;;4.53;;
52962;SDS011;38827;53.024;6.596;2023-12-20T17:31:27;24.58;;;4.30;;
52962;SDS011;38827;53.024;6.596;2023-12-20T17:33:53;18.45;;;3.65;;
52962;SDS011;38827;53.024;6.596;2023-12-20T17:36:21;22.52;;;4.28;;
52962;SDS011;38827;53.024;6.596;2023-12-20T17:38:59;17.20;;;4.30;;
52962;SDS011;38827;53.024;6.596;2023-12-20T17:45:18;23.13;;;4.80;;
52962;SDS011;38827;53.024;6.596;2023-12-20T17:47:44;17.35;;;4.93;;
52962;SDS011;38827;53.024;6.596;2023-12-20T17:50:09;18.90;;;4.35;;
52962;SDS011;38827;53.024;6.596;2023-12-20T17:52:35;21.52;;;4.32;;
52962;SDS011;38827;53.024;6.596;2023-12-20T17:57:36;19.55;;;5.43;;
52962;SDS011;38827;53.024;6.596;2023-12-20T18:00:12;14.63;;;3.95;;
52962;SDS011;38827;53.024;6.596;2023-12-20T18:02:46;19.55;;;3.95;;
52962;SDS011;38827;53.024;6.596;2023-12-20T18:05:12;11.65;;;3.45;;
52962;SDS011;38827;53.024;6.596;2023-12-20T18:07:41;12.20;;;3.05;;
52962;SDS011;38827;53.024;6.596;2023-12-20T18:10:21;13.50;;;3.28;;
52962;SDS011;38827;53.024;6.596;2023-12-20T18:12:47;9.70;;;2.97;;
52962;SDS011;38827;53.024;6.596;2023-12-20T18:15:13;10.25;;;2.80;;
52962;SDS011;38827;53.024;6.596;2023-12-20T18:17:42;7.50;;;2.70;;
52962;SDS011;38827;53.024;6.596;2023-12-20T18:20:08;7.05;;;2.45;;
52962;SDS011;38827;53.024;6.596;2023-12-20T18:22:34;6.65;;;2.28;;
52962;SDS011;38827;53.024;6.596;2023-12-20T19:02:03;3.60;;;1.75;;
52962;SDS011;38827;53.024;6.596;2023-12-20T19:04:31;3.28;;;1.98;;
52962;SDS011;38827;53.024;6.596;2023-12-20T19:13:37;3.65;;;1.58;;
52962;SDS011;38827;53.024;6.596;2023-12-20T19:16:03;2.50;;;1.52;;
52962;SDS011;38827;53.024;6.596;2023-12-20T19:18:47;2.47;;;1.10;;
52962;SDS011;38827;53.024;6.596;2023-12-20T19:21:15;2.08;;;1.30;;
52962;SDS011;38827;53.024;6.596;2023-12-20T19:26:35;3.97;;;1.65;;
52962;SDS011;38827;53.024;6.596;2023-12-20T19:29:02;3.30;;;1.42;;
52962;SDS011;38827;53.024;6.596;2023-12-20T19:31:34;2.72;;;1.40;;
52962;SDS011;38827;53.024;6.596;2023-12-20T19:34:02;3.10;;;1.40;;
52962;SDS011;38827;53.024;6.596;2023-12-20T19:39:36;3.08;;;1.38;;
52962;SDS011;38827;53.024;6.596;2023-12-20T19:42:08;3.33;;;1.67;;
52962;SDS011;38827;53.024;6.596;2023-12-20T19:44:34;4.80;;;1.70;;
52962;SDS011;38827;53.024;6.596;2023-12-20T19:47:17;4.25;;;1.55;;
52962;SDS011;38827;53.024;6.596;2023-12-20T19:49:45;3.63;;;1.60;;
52962;SDS011;38827;53.024;6.596;2023-12-20T19:52:17;5.28;;;1.90;;
52962;SDS011;38827;53.024;6.596;2023-12-20T19:54:43;6.63;;;1.85;;
52962;SDS011;38827;53.024;6.596;2023-12-20T19:57:09;6.32;;;1.60;;
52962;SDS011;38827;53.024;6.596;2023-12-20T19:59:34;4.38;;;1.52;;
52962;SDS011;38827;53.024;6.596;2023-12-20T20:02:12;4.95;;;1.60;;
52962;SDS011;38827;53.024;6.596;2023-12-20T20:04:53;3.95;;;1.77;;
52962;SDS011;38827;53.024;6.596;2023-12-20T20:07:34;4.72;;;1.75;;
52962;SDS011;38827;53.024;6.596;2023-12-20T20:10:17;3.22;;;1.30;;
52962;SDS011;38827;53.024;6.596;2023-12-20T20:12:43;3.75;;;1.52;;
52962;SDS011;38827;53.024;6.596;2023-12-20T20:15:08;6.90;;;1.35;;
52962;SDS011;38827;53.024;6.596;2023-12-20T20:17:34;2.83;;;1.38;;
52962;SDS011;38827;53.024;6.596;2023-12-20T20:22:38;5.05;;;1.60;;
52962;SDS011;38827;53.024;6.596;2023-12-20T20:25:05;4.35;;;1.45;;
52962;SDS011;38827;53.024;6.596;2023-12-20T20:27:33;4.22;;;1.40;;
52962;SDS011;38827;53.024;6.596;2023-12-20T20:30:00;2.85;;;1.10;;
52962;SDS011;38827;53.024;6.596;2023-12-20T20:32:26;4.53;;;1.45;;
52962;SDS011;38827;53.024;6.596;2023-12-20T20:34:53;3.67;;;1.30;;
52962;SDS011;38827;53.024;6.596;2023-12-20T20:37:19;5.03;;;1.38;;
52962;SDS011;38827;53.024;6.596;2023-12-20T20:39:45;3.53;;;1.35;;
52962;SDS011;38827;53.024;6.596;2023-12-20T20:42:10;5.00;;;1.60;;
52962;SDS011;38827;53.024;6.596;2023-12-20T20:44:36;4.30;;;1.50;;
52962;SDS011;38827;53.024;6.596;2023-12-20T20:47:04;3.13;;;1.48;;
52962;SDS011;38827;53.024;6.596;2023-12-20T20:49:30;7.95;;;1.63;;
52962;SDS011;38827;53.024;6.596;2023-12-20T20:52:01;3.60;;;1.30;;
52962;SDS011;38827;53.024;6.596;2023-12-20T22:04:32;18.00;;;3.90;;
52962;SDS011;38827;53.024;6.596;2023-12-20T22:06:58;16.92;;;3.17;;
52962;SDS011;38827;53.024;6.596;2023-12-20T22:09:23;15.05;;;3.45;;
52962;SDS011;38827;53.024;6.596;2023-12-20T22:11:49;15.85;;;3.00;;
52962;SDS011;38827;53.024;6.596;2023-12-20T22:14:19;16.15;;;4.43;;
52962;SDS011;38827;53.024;6.596;2023-12-20T22:16:45;10.27;;;3.20;;
52962;SDS011;38827;53.024;6.596;2023-12-20T22:19:11;14.27;;;3.38;;
52962;SDS011;38827;53.024;6.596;2023-12-20T22:21:37;17.38;;;2.90;;
52962;SDS011;38827;53.024;6.596;2023-12-20T22:24:03;22.45;;;3.88;;
52962;SDS011;38827;53.024;6.596;2023-12-20T22:26:29;19.63;;;3.50;;
52962;SDS011;38827;53.024;6.596;2023-12-20T22:28:58;19.15;;;4.32;;
52962;SDS011;38827;53.024;6.596;2023-12-20T22:31:23;17.23;;;3.33;;
52962;SDS011;38827;53.024;6.596;2023-12-20T22:33:49;16.30;;;4.13;;
52962;SDS011;38827;53.024;6.596;2023-12-20T22:36:20;17.30;;;3.60;;
52962;SDS011;38827;53.024;6.596;2023-12-20T22:38:46;17.10;;;4.05;;
52962;SDS011;38827;53.024;6.596;2023-12-20T22:41:12;22.45;;;4.60;;
52962;SDS011;38827;53.024;6.596;2023-12-20T22:43:38;19.77;;;4.30;;
52962;SDS011;38827;53.024;6.596;2023-12-20T22:46:03;18.98;;;3.80;;
52962;SDS011;38827;53.024;6.596;2023-12-20T22:48:29;16.48;;;3.42;;
52962;SDS011;38827;53.024;6.596;2023-12-20T22:50:55;19.05;;;3.63;;
52962;SDS011;38827;53.024;6.596;2023-12-20T22:53:21;17.08;;;3.00;;
52962;SDS011;38827;53.024;6.596;2023-12-20T22:55:47;17.63;;;3.63;;
52962;SDS011;38827;53.024;6.596;2023-12-20T22:58:13;23.98;;;4.72;;
52962;SDS011;38827;53.024;6.596;2023-12-20T23:00:38;17.08;;;3.60;;
52962;SDS011;38827;53.024;6.596;2023-12-20T23:03:05;18.43;;;3.30;;
52962;SDS011;38827;53.024;6.596;2023-12-20T23:05:31;15.52;;;3.47;;
52962;SDS011;38827;53.024;6.596;2023-12-20T23:07:57;15.27;;;3.65;;
52962;SDS011;38827;53.024;6.596;2023-12-20T23:10:22;19.83;;;3.63;;
52962;SDS011;38827;53.024;6.596;2023-12-20T23:12:52;18.73;;;3.15;;
52962;SDS011;38827;53.024;6.596;2023-12-20T23:15:18;17.50;;;3.40;;
52962;SDS011;38827;53.024;6.596;2023-12-20T23:17:44;20.55;;;4.05;;
52962;SDS011;38827;53.024;6.596;2023-12-20T23:20:10;18.83;;;3.53;;
52962;SDS011;38827;53.024;6.596;2023-12-20T23:22:38;19.48;;;3.67;;
52962;SDS011;38827;53.024;6.596;2023-12-20T23:25:03;17.75;;;4.00;;
52962;SDS011;38827;53.024;6.596;2023-12-20T23:27:29;21.20;;;4.03;;
52962;SDS011;38827;53.024;6.596;2023-12-20T23:29:55;25.55;;;4.07;;
52962;SDS011;38827;53.024;6.596;2023-12-20T23:32:21;20.77;;;4.13;;
52962;SDS011;38827;53.024;6.596;2023-12-20T23:34:49;23.33;;;4.75;;
52962;SDS011;38827;53.024;6.596;2023-12-20T23:37:15;21.08;;;3.88;;
52962;SDS011;38827;53.024;6.596;2023-12-20T23:39:41;28.48;;;4.28;;
52962;SDS011;38827;53.024;6.596;2023-12-20T23:42:13;22.67;;;4.45;;
52962;SDS011;38827;53.024;6.596;2023-12-20T23:44:43;25.42;;;3.67;;
52962;SDS011;38827;53.024;6.596;2023-12-20T23:47:09;27.25;;;4.15;;
52962;SDS011;38827;53.024;6.596;2023-12-20T23:49:37;22.00;;;4.28;;
52962;SDS011;38827;53.024;6.596;2023-12-20T23:52:03;25.10;;;4.45;;
52962;SDS011;38827;53.024;6.596;2023-12-20T23:54:30;20.63;;;4.35;;
52962;SDS011;38827;53.024;6.596;2023-12-20T23:56:56;19.52;;;3.90;;
52962;SDS011;38827;53.024;6.596;2023-12-20T23:59:22;19.55;;;4.50;;
